Terminal Aerodrome Forecast
Issued by NWS

Home | Current Version | Previous Version | Text Only | Print | Product List | Glossary Off
Versions: 1 2 3 4 5 6 7 8 9 10 11 12 13

477
FTUS43 KICT 111735
TAFHUT
TAF
KHUT 111735Z 1118/1218 33015G22KT P6SM SCT250
     FM111900 33022G32KT P6SM BKN250
     FM120200 35012G20KT P6SM FEW250
     FM120500 35010KT P6SM SKC
     FM121000 33006KT P6SM SKC=

USA.gov is the U.S. government's official web portal to all federal, state and local government web resources and services.